Time;durP1;ratioP1;P1;durP2;ratioP2;P2;SDS_P1;SDS_P2;PMS_P1;PMS_P2;Temp;Humidity;BMP_temperature;BMP_pressure;BME280_temperature;BME280_humidity;BME280_pressure;Samples;Min_cycle;Max_cycle;Signal;HPM_P1;HPM_P2
2022/03/23 00:00:00;;;;;;;22.13;18.45;;;15.90;60.10;;;;;;5098416;28;20178;-71
2022/03/23 00:02:26;;;;;;;21.05;17.25;;;15.90;60.20;;;;;;5096887;28;20466;-70
2022/03/23 00:04:53;;;;;;;20.85;17.38;;;15.90;60.30;;;;;;5097864;28;20550;-71
2022/03/23 00:07:20;;;;;;;20.55;17.90;;;15.80;60.30;;;;;;5097368;28;20141;-70
2022/03/23 00:09:46;;;;;;;21.20;18.08;;;15.80;60.40;;;;;;5097992;28;20048;-70
2022/03/23 00:12:12;;;;;;;21.25;17.27;;;15.70;60.40;;;;;;5079998;28;20056;-71
2022/03/23 00:14:38;;;;;;;22.38;18.73;;;15.70;60.50;;;;;;5097508;28;20439;-70
2022/03/23 00:17:04;;;;;;;23.48;18.33;;;15.60;60.50;;;;;;5097785;28;20048;-71
2022/03/23 00:19:30;;;;;;;23.60;19.90;;;15.50;60.70;;;;;;5098120;28;20073;-70
2022/03/23 00:21:56;;;;;;;23.02;19.77;;;15.50;60.80;;;;;;5097571;28;20382;-71
2022/03/23 00:24:21;;;;;;;26.13;21.40;;;15.40;60.90;;;;;;5097398;28;20097;-70
2022/03/23 00:26:47;;;;;;;23.35;19.70;;;15.40;61.00;;;;;;5079657;28;20048;-71
2022/03/23 00:29:13;;;;;;;24.27;20.27;;;15.30;61.10;;;;;;5097413;28;20122;-70
2022/03/23 00:31:39;;;;;;;22.88;20.23;;;15.30;61.20;;;;;;5097129;28;20385;-71
2022/03/23 00:34:04;;;;;;;26.58;20.75;;;15.30;61.20;;;;;;5097182;28;20094;-70
2022/03/23 00:36:30;;;;;;;25.67;21.35;;;15.20;61.20;;;;;;5096976;28;20052;-70
2022/03/23 00:38:56;;;;;;;26.17;21.10;;;15.20;61.30;;;;;;5096563;28;20359;-70
2022/03/23 00:41:22;;;;;;;24.80;20.63;;;15.20;61.30;;;;;;5096912;28;20040;-71
2022/03/23 00:43:48;;;;;;;27.00;21.75;;;15.20;61.30;;;;;;5079286;28;20055;-71
2022/03/23 00:46:15;;;;;;;25.05;21.02;;;15.10;61.40;;;;;;5096735;28;20510;-71
2022/03/23 00:48:42;;;;;;;26.02;21.92;;;15.10;61.30;;;;;;5096551;28;20060;-71
2022/03/23 00:51:08;;;;;;;25.23;21.83;;;15.10;61.40;;;;;;5096425;28;20044;-70
2022/03/23 00:53:34;;;;;;;26.35;22.73;;;15.00;61.40;;;;;;5078787;28;20363;-70
2022/03/23 00:56:00;;;;;;;26.63;23.05;;;15.00;61.50;;;;;;5096674;28;20160;-70
2022/03/23 00:58:26;;;;;;;26.88;22.77;;;15.00;61.50;;;;;;5096320;28;20048;-71
2022/03/23 01:00:51;;;;;;;25.30;21.30;;;14.90;61.50;;;;;;5096507;28;20043;-71
2022/03/23 01:03:18;;;;;;;26.08;21.20;;;14.90;61.50;;;;;;5096587;28;20048;-72
2022/03/23 01:05:43;;;;;;;27.95;23.10;;;14.90;61.60;;;;;;5097249;28;20332;-71
2022/03/23 01:08:09;;;;;;;26.23;22.10;;;14.90;61.70;;;;;;5096788;28;20058;-70
2022/03/23 01:10:36;;;;;;;28.13;23.40;;;14.90;61.50;;;;;;5096531;28;20083;-71
2022/03/23 01:13:03;;;;;;;26.80;22.80;;;14.80;61.70;;;;;;5096658;28;20044;-70
2022/03/23 01:15:29;;;;;;;25.77;21.35;;;14.80;61.60;;;;;;5096258;28;20083;-70
2022/03/23 01:17:55;;;;;;;26.95;21.90;;;14.80;61.60;;;;;;5096168;28;20061;-70
2022/03/23 01:20:21;;;;;;;24.92;21.42;;;14.80;61.60;;;;;;5096881;28;20102;-71
2022/03/23 01:22:48;;;;;;;25.08;21.48;;;14.70;61.60;;;;;;5096425;28;20080;-72
2022/03/23 01:25:14;;;;;;;26.23;21.80;;;14.70;61.70;;;;;;5096042;28;20431;-70
2022/03/23 01:27:41;;;;;;;26.67;22.17;;;14.70;61.60;;;;;;5096052;28;20044;-71
2022/03/23 01:30:11;;;;;;;27.42;22.10;;;14.70;61.60;;;;;;5095826;28;20054;-71
2022/03/23 01:32:38;;;;;;;23.83;20.73;;;14.70;61.60;;;;;;5095544;28;20048;-70
2022/03/23 01:35:05;;;;;;;23.50;21.00;;;14.70;61.60;;;;;;5095474;28;20128;-71
2022/03/23 01:37:31;;;;;;;27.08;21.90;;;14.70;61.60;;;;;;5096127;28;20051;-70
2022/03/23 01:39:57;;;;;;;24.80;21.40;;;14.60;61.50;;;;;;5096369;28;20040;-70
2022/03/23 01:42:23;;;;;;;24.73;20.38;;;14.60;61.60;;;;;;5095948;28;20076;-71
2022/03/23 01:44:49;;;;;;;23.63;19.85;;;14.60;61.70;;;;;;5095768;28;20040;-70
2022/03/23 01:47:16;;;;;;;24.08;20.90;;;14.60;61.70;;;;;;5078134;28;20051;-71
2022/03/23 01:49:48;;;;;;;25.10;20.70;;;14.60;61.80;;;;;;5095426;28;20048;-70
2022/03/23 01:52:16;;;;;;;27.65;21.52;;;14.70;61.70;;;;;;5095329;28;20083;-70
2022/03/23 01:54:43;;;;;;;27.02;21.60;;;14.70;61.60;;;;;;5095643;28;20055;-70
2022/03/23 01:57:12;;;;;;;24.50;21.88;;;14.70;61.70;;;;;;5095749;28;20040;-70
2022/03/23 01:59:38;;;;;;;27.25;21.50;;;14.70;61.50;;;;;;5095790;28;20269;-70
2022/03/23 02:02:05;;;;;;;26.65;22.40;;;14.70;61.50;;;;;;5094462;28;20166;-70
2022/03/23 02:04:31;;;;;;;27.88;22.77;;;14.70;61.50;;;;;;5094941;28;20135;-70
2022/03/23 02:06:57;;;;;;;28.15;23.83;;;14.70;61.40;;;;;;5095641;28;20067;-70
2022/03/23 02:09:24;;;;;;;27.30;22.92;;;14.70;61.30;;;;;;5095866;28;20044;-70
2022/03/23 02:11:50;;;;;;;26.40;21.73;;;14.70;61.30;;;;;;5096171;28;20114;-70
2022/03/23 02:14:16;;;;;;;27.20;23.73;;;14.70;61.30;;;;;;5095554;28;20059;-70
2022/03/23 02:16:44;;;;;;;30.00;23.00;;;14.70;61.20;;;;;;5095998;28;20135;-71
2022/03/23 02:19:10;;;;;;;29.48;23.90;;;14.70;61.20;;;;;;5094966;28;20054;-71
2022/03/23 02:21:37;;;;;;;29.33;23.90;;;14.70;61.20;;;;;;5095218;28;20094;-70
2022/03/23 02:24:06;;;;;;;31.70;24.85;;;14.70;61.10;;;;;;5095622;28;20086;-70
2022/03/23 02:26:33;;;;;;;29.92;24.63;;;14.70;61.00;;;;;;5095301;28;20066;-71
2022/03/23 02:29:02;;;;;;;26.95;23.38;;;14.70;60.90;;;;;;5095872;28;20044;-70
2022/03/23 02:31:28;;;;;;;29.25;24.60;;;14.80;60.90;;;;;;5095229;28;20056;-70
2022/03/23 02:33:53;;;;;;;28.90;24.42;;;14.80;60.90;;;;;;5094479;28;20096;-70
2022/03/23 02:36:19;;;;;;;30.65;24.83;;;14.80;60.80;;;;;;5094636;28;20527;-71
2022/03/23 02:38:45;;;;;;;27.48;24.25;;;14.80;60.80;;;;;;5095072;28;20073;-70
2022/03/23 02:41:11;;;;;;;31.80;25.52;;;14.70;60.70;;;;;;5094967;28;20092;-70
2022/03/23 02:43:36;;;;;;;29.73;24.95;;;14.70;60.70;;;;;;5095197;28;20032;-70
2022/03/23 02:46:02;;;;;;;29.58;25.88;;;14.70;60.70;;;;;;5074008;28;20582;-71
2022/03/23 02:48:29;;;;;;;32.05;26.77;;;14.70;60.70;;;;;;5094834;28;20509;-71
2022/03/23 02:50:55;;;;;;;30.83;26.27;;;14.70;60.60;;;;;;5094921;28;20080;-71
2022/03/23 03:02:19;;;;;;;32.45;26.20;;;14.70;60.70;;;;;;5094605;28;20052;-70
2022/03/23 03:04:45;;;;;;;33.78;26.58;;;14.70;60.60;;;;;;5094596;28;20051;-70
2022/03/23 03:07:10;;;;;;;34.75;28.52;;;14.70;60.60;;;;;;5076961;28;20052;-71
2022/03/23 03:09:36;;;;;;;35.13;28.55;;;14.70;60.60;;;;;;5095069;28;20040;-70
2022/03/23 03:12:02;;;;;;;35.17;28.83;;;14.70;60.60;;;;;;5094738;28;20047;-70
2022/03/23 03:14:29;;;;;;;34.70;28.50;;;14.70;60.60;;;;;;5077051;28;20047;-70
2022/03/23 03:16:55;;;;;;;37.17;29.40;;;14.70;60.60;;;;;;5097129;28;20075;-70
2022/03/23 03:19:21;;;;;;;36.45;29.08;;;14.60;60.50;;;;;;5098116;28;20068;-70
2022/03/23 03:21:47;;;;;;;36.15;29.85;;;14.60;60.50;;;;;;5098588;28;20040;-70
2022/03/23 03:24:12;;;;;;;38.38;30.48;;;14.60;60.50;;;;;;5098545;28;20093;-70
2022/03/23 03:26:38;;;;;;;38.05;28.75;;;14.60;60.50;;;;;;5098162;28;20128;-70
2022/03/23 03:29:04;;;;;;;35.45;29.77;;;14.60;60.60;;;;;;5098452;28;20059;-70
2022/03/23 03:31:30;;;;;;;35.63;30.20;;;14.50;60.50;;;;;;5098087;28;20087;-70
2022/03/23 03:33:57;;;;;;;36.20;28.33;;;14.50;60.40;;;;;;5099045;28;20435;-70
2022/03/23 03:36:23;;;;;;;38.40;29.80;;;14.40;60.60;;;;;;5098676;28;20119;-70
2022/03/23 03:38:49;;;;;;;35.28;28.85;;;14.40;60.60;;;;;;5080674;28;20056;-71
2022/03/23 03:41:14;;;;;;;38.13;29.05;;;14.40;60.70;;;;;;5097957;28;20039;-70
2022/03/23 03:43:40;;;;;;;35.05;27.98;;;14.40;60.80;;;;;;5098204;28;20083;-70
2022/03/23 03:46:07;;;;;;;35.28;28.27;;;14.40;60.70;;;;;;5098193;28;20101;-70
2022/03/23 03:48:33;;;;;;;35.45;27.15;;;14.40;60.70;;;;;;5097705;28;20055;-70
2022/03/23 03:51:00;;;;;;;36.78;29.83;;;14.40;60.60;;;;;;5097705;28;20138;-71
2022/03/23 03:53:26;;;;;;;35.28;28.42;;;14.40;60.50;;;;;;5098083;28;20366;-70
2022/03/23 03:55:52;;;;;;;34.33;27.88;;;14.40;60.50;;;;;;5097833;28;20470;-70
2022/03/23 03:58:18;;;;;;;34.35;27.75;;;14.40;60.40;;;;;;5098527;28;20047;-71
2022/03/23 04:00:44;;;;;;;34.53;28.85;;;14.40;60.50;;;;;;5097342;28;20105;-71
2022/03/23 04:03:10;;;;;;;34.22;29.27;;;14.40;60.40;;;;;;5096448;28;20058;-70
2022/03/23 04:05:36;;;;;;;37.38;29.85;;;14.40;60.40;;;;;;5097792;28;20130;-71
2022/03/23 04:08:02;;;;;;;35.65;29.35;;;14.40;60.50;;;;;;5097540;28;20039;-71
2022/03/23 04:10:28;;;;;;;32.20;27.55;;;14.40;60.50;;;;;;5097912;28;20410;-70
2022/03/23 04:12:55;;;;;;;33.53;28.65;;;14.40;60.50;;;;;;5097363;28;20071;-71
2022/03/23 04:15:21;;;;;;;35.47;28.70;;;14.40;60.50;;;;;;5097361;28;20051;-70
2022/03/23 04:17:48;;;;;;;33.47;27.98;;;14.40;60.60;;;;;;5097495;28;20074;-70
2022/03/23 04:20:14;;;;;;;36.67;29.52;;;14.40;60.60;;;;;;5097304;28;20047;-70
2022/03/23 04:22:40;;;;;;;35.45;29.55;;;14.40;60.50;;;;;;5097588;28;20043;-70
2022/03/23 04:25:08;;;;;;;36.28;28.88;;;14.40;60.50;;;;;;5097758;28;20044;-70
2022/03/23 04:27:34;;;;;;;33.97;29.08;;;14.40;60.50;;;;;;5096427;28;20376;-70
2022/03/23 04:30:01;;;;;;;37.40;29.83;;;14.40;60.60;;;;;;5097406;28;20048;-70
2022/03/23 04:32:26;;;;;;;36.83;29.85;;;14.30;60.60;;;;;;5096750;28;20040;-70
2022/03/23 04:34:52;;;;;;;36.22;29.42;;;14.40;60.60;;;;;;5096943;28;20055;-70
2022/03/23 04:37:18;;;;;;;36.35;30.08;;;14.40;60.60;;;;;;5096969;28;20044;-71
2022/03/23 04:39:43;;;;;;;37.08;29.95;;;14.30;60.60;;;;;;5097151;28;20062;-71
2022/03/23 04:42:09;;;;;;;35.47;28.58;;;14.30;60.60;;;;;;5097035;28;20052;-71
2022/03/23 04:44:35;;;;;;;36.67;29.95;;;14.30;60.60;;;;;;5097024;28;20040;-72
2022/03/23 04:47:04;;;;;;;39.15;31.15;;;14.30;60.60;;;;;;5096796;28;20052;-71
2022/03/23 04:49:29;;;;;;;37.28;30.15;;;14.30;60.60;;;;;;5096510;28;20056;-70
2022/03/23 04:51:55;;;;;;;37.13;30.92;;;14.30;60.60;;;;;;5096966;28;20504;-70
2022/03/23 04:54:21;;;;;;;38.72;30.52;;;14.30;60.60;;;;;;5096770;28;20109;-70
2022/03/23 04:56:46;;;;;;;35.45;29.58;;;14.30;60.60;;;;;;5096760;28;20379;-70
2022/03/23 04:59:13;;;;;;;37.05;29.63;;;14.30;60.60;;;;;;5096427;28;20093;-72
2022/03/23 05:01:39;;;;;;;36.13;30.50;;;14.30;60.60;;;;;;5096611;28;20040;-70
2022/03/23 05:04:05;;;;;;;35.40;29.10;;;14.20;60.60;;;;;;5096264;28;20363;-70
2022/03/23 05:06:30;;;;;;;34.08;28.63;;;14.20;60.60;;;;;;5096435;28;20047;-70
2022/03/23 05:08:56;;;;;;;35.70;29.75;;;14.20;60.60;;;;;;5096758;28;20040;-71
2022/03/23 05:11:22;;;;;;;34.75;28.42;;;14.20;60.70;;;;;;5096550;28;20044;-70
2022/03/23 05:13:48;;;;;;;34.28;28.20;;;14.20;60.60;;;;;;5078716;28;20532;-71
2022/03/23 05:16:14;;;;;;;34.15;27.40;;;14.10;60.30;;;;;;5096438;28;20043;-71
2022/03/23 05:18:41;;;;;;;32.30;25.55;;;14.10;60.30;;;;;;5096400;28;20154;-76
2022/03/23 05:21:13;;;;;;;28.13;23.98;;;14.10;60.90;;;;;;5096204;28;20051;-80
2022/03/23 05:23:40;;;;;;;25.98;21.48;;;14.10;60.50;;;;;;5096386;28;20058;-77
2022/03/23 05:26:06;;;;;;;22.85;19.52;;;14.10;59.50;;;;;;5061741;28;20044;-77
2022/03/23 05:28:32;;;;;;;22.17;18.75;;;14.10;58.40;;;;;;5072456;28;20051;-78
2022/03/23 05:30:58;;;;;;;20.17;16.75;;;14.20;57.70;;;;;;5090857;28;20040;-77
2022/03/23 05:33:23;;;;;;;22.02;17.45;;;14.10;56.90;;;;;;5086669;28;20425;-78
2022/03/23 05:35:49;;;;;;;20.02;16.80;;;14.20;56.50;;;;;;5071274;28;20043;-77
2022/03/23 05:38:15;;;;;;;19.55;16.60;;;14.20;56.10;;;;;;5089268;28;20071;-71
2022/03/23 05:40:41;;;;;;;24.30;16.50;;;14.20;55.80;;;;;;5095574;28;20043;-72
2022/03/23 05:43:06;;;;;;;20.23;15.80;;;14.20;55.90;;;;;;5095621;28;20105;-71
2022/03/23 05:45:32;;;;;;;19.02;16.02;;;14.20;56.50;;;;;;5095555;28;20050;-74
2022/03/23 05:47:58;;;;;;;17.98;14.45;;;14.20;56.80;;;;;;5095249;28;20056;-75
2022/03/23 05:50:23;;;;;;;17.65;14.23;;;14.30;57.00;;;;;;5078053;28;20055;-75
2022/03/23 05:52:49;;;;;;;17.27;13.27;;;14.50;57.40;;;;;;5095811;28;20352;-79
2022/03/23 05:55:15;;;;;;;16.52;11.93;;;14.70;57.70;;;;;;5095673;28;20059;-73
2022/03/23 05:57:40;;;;;;;15.15;11.48;;;14.90;57.70;;;;;;5095358;28;20040;-73
2022/03/23 06:00:08;;;;;;;18.85;14.98;;;15.10;57.10;;;;;;5077998;28;20521;-75
2022/03/23 06:02:34;;;;;;;22.35;15.10;;;14.80;57.00;;;;;;5094974;28;20044;-73
2022/03/23 06:04:59;;;;;;;30.92;14.82;;;14.70;58.00;;;;;;5095593;28;20063;-73
2022/03/23 06:07:25;;;;;;;14.75;10.30;;;14.60;58.60;;;;;;5077442;28;20044;-76
2022/03/23 06:09:51;;;;;;;14.35;11.32;;;14.60;60.00;;;;;;5095382;28;20045;-76
2022/03/23 06:12:17;;;;;;;15.23;10.15;;;14.90;59.90;;;;;;5095132;28;20055;-76
2022/03/23 06:14:45;;;;;;;12.60;9.20;;;15.00;60.20;;;;;;5095159;28;20080;-78
2022/03/23 06:17:11;;;;;;;12.23;9.55;;;15.20;60.00;;;;;;5095125;28;20479;-73
2022/03/23 06:19:38;;;;;;;11.23;9.07;;;15.40;59.80;;;;;;5076601;28;20051;-77
2022/03/23 06:22:07;;;;;;;15.50;8.48;;;15.50;59.60;;;;;;5095234;28;20048;-74
2022/03/23 06:24:33;;;;;;;13.02;8.15;;;15.60;59.70;;;;;;5094967;28;20044;-72
2022/03/23 06:27:00;;;;;;;13.27;8.40;;;15.70;60.00;;;;;;5077441;28;20043;-73
2022/03/23 06:29:26;;;;;;;9.30;6.72;;;15.80;59.70;;;;;;5094695;28;20355;-78
2022/03/23 06:31:52;;;;;;;10.77;7.60;;;15.80;59.40;;;;;;5094516;28;20043;-73
2022/03/23 06:34:17;;;;;;;11.45;7.55;;;15.90;59.50;;;;;;5065569;28;20041;-72
2022/03/23 06:36:43;;;;;;;10.65;7.88;;;16.00;59.10;;;;;;5057236;28;20471;-74
2022/03/23 06:39:09;;;;;;;10.68;6.30;;;16.10;59.00;;;;;;5074964;28;20367;-74
2022/03/23 06:41:35;;;;;;;8.65;6.60;;;16.20;59.10;;;;;;5075316;28;20047;-74
2022/03/23 06:44:02;;;;;;;9.18;6.47;;;16.30;59.10;;;;;;5074723;28;20048;-75
2022/03/23 06:46:27;;;;;;;9.05;5.93;;;16.40;59.20;;;;;;5074827;28;20052;-72
2022/03/23 06:48:53;;;;;;;12.65;6.32;;;16.50;59.50;;;;;;5074710;28;20056;-72
2022/03/23 06:51:19;;;;;;;12.63;7.20;;;16.50;59.70;;;;;;5076252;28;20045;-74
2022/03/23 06:53:45;;;;;;;9.30;6.03;;;16.50;59.80;;;;;;5078814;28;20484;-73
2022/03/23 06:56:11;;;;;;;21.73;6.60;;;16.50;60.00;;;;;;5078677;28;20048;-73
2022/03/23 06:58:37;;;;;;;13.15;6.75;;;16.50;60.10;;;;;;5061000;28;20048;-72
2022/03/23 07:01:03;;;;;;;10.75;6.65;;;16.50;60.20;;;;;;5077989;28;20123;-74
2022/03/23 07:03:29;;;;;;;11.73;6.70;;;16.40;60.30;;;;;;5083432;28;20434;-75
2022/03/23 07:05:55;;;;;;;15.25;7.45;;;16.40;60.40;;;;;;5096776;28;20119;-76
2022/03/23 07:11:05;;;;;;;10.77;7.22;;;16.40;60.50;;;;;;5098325;28;20048;-72
2022/03/23 07:13:32;;;;;;;15.52;6.68;;;16.30;60.50;;;;;;5098189;28;20043;-75
2022/03/23 07:15:58;;;;;;;15.27;8.25;;;16.30;60.50;;;;;;5098490;28;20425;-73
2022/03/23 07:18:24;;;;;;;15.13;10.25;;;16.30;60.50;;;;;;5098229;28;20051;-74
2022/03/23 07:20:50;;;;;;;13.02;10.32;;;16.20;60.20;;;;;;5080912;28;20446;-73
2022/03/23 07:23:15;;;;;;;12.45;9.88;;;16.20;60.10;;;;;;5094602;28;20048;-73
2022/03/23 07:25:41;;;;;;;15.57;10.27;;;16.10;60.00;;;;;;5098741;28;20416;-74
2022/03/23 07:28:07;;;;;;;19.40;10.32;;;16.10;60.00;;;;;;5098465;28;20046;-73
2022/03/23 07:30:37;;;;;;;14.63;10.65;;;16.10;60.00;;;;;;5097805;28;20181;-73
2022/03/23 07:33:03;;;;;;;18.58;10.10;;;16.10;59.90;;;;;;5098488;28;20127;-74
2022/03/23 07:35:29;;;;;;;13.63;10.18;;;16.20;59.90;;;;;;5098546;28;20052;-73
2022/03/23 07:37:56;;;;;;;15.40;10.45;;;16.20;59.80;;;;;;5080607;28;20071;-74
2022/03/23 07:40:21;;;;;;;13.95;9.57;;;16.20;59.70;;;;;;5098589;28;20069;-73
2022/03/23 07:42:47;;;;;;;12.80;10.00;;;16.20;59.60;;;;;;5098048;28;20065;-73
2022/03/23 07:45:14;;;;;;;15.10;11.32;;;16.20;59.60;;;;;;5098118;28;20108;-74
2022/03/23 07:47:40;;;;;;;13.95;10.00;;;16.20;59.60;;;;;;5097218;28;20091;-73
2022/03/23 07:50:07;;;;;;;19.05;11.02;;;16.30;59.50;;;;;;5098212;28;20094;-76
2022/03/23 07:52:33;;;;;;;17.13;10.73;;;16.30;59.50;;;;;;5097614;28;20120;-73
2022/03/23 07:55:02;;;;;;;14.50;10.60;;;16.30;59.50;;;;;;5094543;28;20056;-74
2022/03/23 07:57:28;;;;;;;13.80;10.35;;;16.30;59.50;;;;;;5097547;28;20036;-74
2022/03/23 07:59:55;;;;;;;13.30;10.45;;;16.40;59.60;;;;;;5096979;28;20105;-75
2022/03/23 08:02:23;;;;;;;14.93;10.63;;;16.40;59.60;;;;;;5077691;28;20059;-72
2022/03/23 08:04:49;;;;;;;16.85;12.27;;;16.40;59.60;;;;;;5097396;28;20371;-73
2022/03/23 08:07:15;;;;;;;17.80;12.18;;;16.40;59.50;;;;;;5097726;28;20048;-74
2022/03/23 08:09:41;;;;;;;20.70;15.30;;;16.40;59.50;;;;;;5097384;28;20130;-72
2022/03/23 08:12:07;;;;;;;22.80;16.73;;;16.40;60.10;;;;;;5097417;28;20101;-75
2022/03/23 08:14:33;;;;;;;20.77;16.58;;;16.30;59.40;;;;;;5079676;28;20052;-73
2022/03/23 08:16:58;;;;;;;20.10;16.27;;;16.30;59.50;;;;;;5097056;28;20119;-75
2022/03/23 08:19:24;;;;;;;20.23;15.52;;;16.30;59.50;;;;;;5097539;28;20055;-74
2022/03/23 08:21:51;;;;;;;20.88;15.45;;;16.30;59.50;;;;;;5079758;28;20033;-75
2022/03/23 08:24:17;;;;;;;18.70;14.75;;;16.20;59.70;;;;;;5061157;28;20482;-74
2022/03/23 08:26:42;;;;;;;18.02;13.98;;;16.20;60.60;;;;;;5077091;28;20048;-74
2022/03/23 08:29:08;;;;;;;17.65;14.38;;;16.20;60.20;;;;;;5076531;28;20045;-74
2022/03/23 08:31:35;;;;;;;17.67;14.95;;;16.20;60.40;;;;;;5081605;28;20040;-73
2022/03/23 08:34:01;;;;;;;15.77;13.15;;;16.10;60.60;;;;;;5096415;28;20048;-75
2022/03/23 08:36:27;;;;;;;17.45;14.18;;;16.20;60.80;;;;;;5096980;28;20048;-74
2022/03/23 08:38:53;;;;;;;16.77;13.27;;;16.10;60.90;;;;;;5078917;28;20360;-74
2022/03/23 08:41:19;;;;;;;19.55;14.20;;;16.10;61.10;;;;;;5096509;28;20048;-74
2022/03/23 08:43:45;;;;;;;18.65;14.52;;;16.10;61.20;;;;;;5096867;28;20324;-74
2022/03/23 08:46:13;;;;;;;17.05;14.02;;;16.10;61.20;;;;;;5096848;28;20118;-73
2022/03/23 08:48:39;;;;;;;18.48;13.38;;;16.10;61.30;;;;;;5095769;28;20143;-75
2022/03/23 08:51:05;;;;;;;16.08;12.65;;;16.10;61.20;;;;;;5078336;28;20429;-74
2022/03/23 08:53:31;;;;;;;16.80;12.63;;;16.10;61.30;;;;;;5076232;28;20040;-75
2022/03/23 08:55:57;;;;;;;14.75;12.80;;;16.10;61.50;;;;;;5058623;28;20127;-74
2022/03/23 08:58:23;;;;;;;15.52;12.50;;;16.10;61.50;;;;;;5075531;28;20135;-73
2022/03/23 09:00:49;;;;;;;14.75;12.18;;;16.10;61.40;;;;;;5076342;28;20095;-74
2022/03/23 09:03:15;;;;;;;15.32;12.00;;;16.10;61.50;;;;;;5094970;28;20454;-74
2022/03/23 09:05:41;;;;;;;16.08;13.23;;;16.10;61.50;;;;;;5096052;28;20465;-73
2022/03/23 09:08:10;;;;;;;17.27;12.35;;;16.10;61.40;;;;;;5096488;28;20048;-74
2022/03/23 09:10:37;;;;;;;15.35;12.18;;;16.10;61.30;;;;;;5075792;28;20052;-74
2022/03/23 09:13:03;;;;;;;15.02;12.13;;;16.10;61.30;;;;;;5096483;28;20051;-73
2022/03/23 09:15:30;;;;;;;14.13;11.60;;;16.10;61.30;;;;;;5096708;28;20048;-73
2022/03/23 09:18:00;;;;;;;15.27;11.25;;;16.10;61.20;;;;;;5096393;28;20055;-74
2022/03/23 09:20:28;;;;;;;14.65;11.80;;;16.10;61.30;;;;;;5096099;28;20044;-73
2022/03/23 09:22:55;;;;;;;15.25;11.60;;;16.10;61.20;;;;;;5096335;28;20044;-75
2022/03/23 09:25:22;;;;;;;15.88;11.88;;;16.10;61.20;;;;;;5096269;28;20040;-74
2022/03/23 09:27:49;;;;;;;14.02;10.63;;;16.10;61.10;;;;;;5096293;28;20044;-74
2022/03/23 09:30:15;;;;;;;13.57;10.63;;;16.10;61.10;;;;;;5096906;28;20069;-74
2022/03/23 09:32:43;;;;;;;14.50;10.68;;;16.10;61.10;;;;;;5095494;28;20044;-74
2022/03/23 09:35:10;;;;;;;11.63;10.10;;;16.10;61.10;;;;;;5093447;28;20455;-74
2022/03/23 09:37:48;;;;;;;12.93;10.10;;;16.10;61.10;;;;;;5075795;28;20460;-73
2022/03/23 09:40:20;;;;;;;12.10;10.05;;;16.10;61.10;;;;;;5060472;28;20333;-74
2022/03/23 09:42:46;;;;;;;13.00;10.43;;;16.10;61.20;;;;;;5087977;28;20062;-74
2022/03/23 09:45:29;;;;;;;11.63;9.48;;;16.10;61.90;;;;;;5095622;28;20121;-74
2022/03/23 09:47:56;;;;;;;12.02;9.60;;;16.10;61.20;;;;;;5077117;28;20131;-75
2022/03/23 09:50:24;;;;;;;12.30;8.98;;;16.10;61.30;;;;;;5077526;28;20060;-74
2022/03/23 09:52:52;;;;;;;14.85;10.23;;;16.10;61.50;;;;;;5095445;28;20060;-78
2022/03/23 09:55:18;;;;;;;17.20;14.30;;;16.10;61.60;;;;;;5095549;28;20512;-79
2022/03/23 09:57:43;;;;;;;19.52;12.57;;;16.10;61.40;;;;;;5061042;28;20044;-77
2022/03/23 10:00:09;;;;;;;14.57;11.77;;;16.10;61.40;;;;;;5095704;28;20043;-81
2022/03/23 10:03:18;;;;;;;18.52;13.38;;;16.10;61.40;;;;;;5091757;28;20104;-79
2022/03/23 10:05:47;;;;;;;19.73;14.25;;;16.10;61.50;;;;;;5077671;28;20047;-78
2022/03/23 10:08:58;;;;;;;18.05;14.70;;;16.10;61.20;;;;;;5095253;28;20044;-78
2022/03/23 10:12:02;;;;;;;18.45;13.20;;;16.10;60.90;;;;;;5062155;28;20537;-77
2022/03/23 10:14:49;;;;;;;17.67;12.73;;;16.10;61.40;;;;;;5095826;28;20062;-77
2022/03/23 10:17:45;;;;;;;16.92;12.45;;;16.10;61.20;;;;;;5095805;28;20052;-78
2022/03/23 10:20:12;;;;;;;19.48;14.15;;;16.00;61.50;;;;;;5095525;28;20333;-78
2022/03/23 10:22:45;;;;;;;20.80;15.55;;;16.00;61.30;;;;;;5077733;28;20052;-77
2022/03/23 10:25:12;;;;;;;;;;;16.00;60.90;;;;;;5095529;28;20052;-73
2022/03/23 10:27:38;;;;;;;20.50;13.15;;;16.00;61.40;;;;;;5095086;28;20330;-74
2022/03/23 10:30:06;;;;;;;19.13;13.85;;;16.00;61.20;;;;;;5095274;28;20055;-79
2022/03/23 10:32:42;;;;;;;20.75;14.50;;;16.00;61.00;;;;;;5094729;28;20462;-77
2022/03/23 10:35:16;;;;;;;19.25;14.68;;;16.00;60.80;;;;;;5077724;28;20408;-78
2022/03/23 10:37:45;;;;;;;21.50;15.70;;;16.00;60.80;;;;;;5095049;28;20048;-76
2022/03/23 10:40:17;;;;;;;22.85;14.82;;;16.00;60.60;;;;;;5095407;28;20343;-73
2022/03/23 10:42:45;;;;;;;21.60;14.75;;;16.00;60.70;;;;;;5094760;28;20140;-72
2022/03/23 10:45:21;;;;;;;20.10;14.20;;;16.00;60.80;;;;;;5095085;28;20063;-74
2022/03/23 10:47:48;;;;;;;19.02;14.60;;;16.00;60.80;;;;;;5095045;28;20052;-73
2022/03/23 10:50:19;;;;;;;17.27;13.88;;;16.00;60.80;;;;;;5093110;28;20052;-74
2022/03/23 10:53:01;;;;;;;18.38;15.15;;;16.00;60.80;;;;;;5076024;28;20054;-73
2022/03/23 10:55:34;;;;;;;17.38;13.32;;;16.00;60.90;;;;;;5094923;28;20044;-74
2022/03/23 10:58:00;;;;;;;17.40;13.20;;;16.00;60.80;;;;;;5094520;28;20044;-72
2022/03/23 11:00:37;;;;;;;19.92;12.90;;;16.00;60.90;;;;;;5094453;28;20109;-73
2022/03/23 11:03:04;;;;;;;19.05;13.05;;;16.00;61.00;;;;;;5092329;28;20481;-73
2022/03/23 11:05:42;;;;;;;17.52;13.75;;;16.00;61.00;;;;;;5094919;28;20432;-73
2022/03/23 11:08:09;;;;;;;17.25;12.43;;;16.00;61.10;;;;;;5095210;28;20407;-74
2022/03/23 11:16:12;;;;;;;15.90;12.25;;;16.00;61.20;;;;;;5094629;28;20052;-73
2022/03/23 11:18:38;;;;;;;18.50;12.40;;;15.90;61.20;;;;;;5094093;28;20043;-73
2022/03/23 11:21:05;;;;;;;11.90;10.35;;;16.00;61.30;;;;;;5094849;28;20047;-73
2022/03/23 11:23:35;;;;;;;15.52;11.45;;;16.00;61.40;;;;;;5095210;28;20036;-74
2022/03/23 11:26:03;;;;;;;13.10;11.02;;;16.00;61.40;;;;;;5077455;28;20066;-73
2022/03/23 11:28:32;;;;;;;13.88;10.35;;;16.00;61.40;;;;;;5094679;28;20371;-73
2022/03/23 11:30:58;;;;;;;13.35;11.38;;;16.00;61.50;;;;;;5093566;28;20040;-74
2022/03/23 11:33:26;;;;;;;12.18;9.73;;;16.00;61.50;;;;;;5076626;28;20131;-72
2022/03/23 11:35:53;;;;;;;14.02;10.55;;;16.00;61.50;;;;;;5077044;28;20056;-72
2022/03/23 11:38:25;;;;;;;13.15;10.43;;;16.00;61.60;;;;;;5097077;28;20055;-73
2022/03/23 11:40:52;;;;;;;11.60;9.00;;;16.00;61.60;;;;;;5098190;28;20086;-73
2022/03/23 11:43:21;;;;;;;12.13;9.65;;;16.00;61.70;;;;;;5098174;28;20044;-73
2022/03/23 11:45:49;;;;;;;10.90;8.70;;;16.00;61.70;;;;;;5097920;28;20047;-74
2022/03/23 11:48:30;;;;;;;11.95;9.27;;;16.00;61.70;;;;;;5097675;28;20070;-73
2022/03/23 11:51:38;;;;;;;14.10;10.70;;;16.00;61.80;;;;;;5097830;28;20439;-72
2022/03/23 11:55:37;;;;;;;12.75;9.38;;;16.00;61.80;;;;;;5097988;28;20058;-73
2022/03/23 11:57:21;;;;;;;13.27;9.90;;;16.00;61.60;;;;;;5097481;28;20066;-73
2022/03/23 11:59:47;;;;;;;15.55;10.05;;;16.00;61.30;;;;;;5080041;28;20048;-73
2022/03/23 12:02:16;;;;;;;12.20;9.73;;;16.00;61.00;;;;;;5097477;28;20040;-72
2022/03/23 12:04:42;;;;;;;17.38;10.48;;;16.00;60.90;;;;;;5098524;28;20044;-73
2022/03/23 12:07:10;;;;;;;14.27;10.20;;;16.00;61.00;;;;;;5097545;28;20190;-73
2022/03/23 12:09:44;;;;;;;16.75;10.20;;;16.00;60.80;;;;;;5097766;28;20044;-73
2022/03/23 12:12:33;;;;;;;11.98;9.57;;;16.00;60.90;;;;;;5096909;28;20394;-73
2022/03/23 12:15:23;;;;;;;15.35;9.35;;;16.00;61.00;;;;;;5097590;28;20244;-73
2022/03/23 12:17:55;;;;;;;12.65;9.55;;;16.00;61.10;;;;;;5097260;28;20055;-73
2022/03/23 12:20:37;;;;;;;13.32;9.93;;;16.00;60.80;;;;;;5097358;28;20044;-73
2022/03/23 12:23:15;;;;;;;15.02;10.70;;;16.00;61.00;;;;;;5094483;28;20054;-74
2022/03/23 12:26:01;;;;;;;14.50;9.98;;;16.00;60.70;;;;;;5079704;28;20048;-76
2022/03/23 12:28:49;;;;;;;15.52;12.18;;;16.00;60.60;;;;;;5079482;28;20055;-77
2022/03/23 12:31:16;;;;;;;14.68;11.75;;;16.00;60.20;;;;;;5086488;28;21995;-74
2022/03/23 12:34:11;;;;;;;17.55;11.63;;;16.00;60.20;;;;;;5096764;28;20344;-74
2022/03/23 12:39:44;;;;;;;17.60;11.10;;;16.00;60.20;;;;;;5096986;28;20060;-75
2022/03/23 12:42:13;;;;;;;17.67;11.15;;;16.00;60.20;;;;;;5097256;28;20470;-74
2022/03/23 12:44:57;;;;;;;14.43;10.63;;;16.00;60.00;;;;;;5097161;28;20081;-74
2022/03/23 12:47:27;;;;;;;16.33;10.65;;;16.00;60.10;;;;;;5096674;28;20441;-74
2022/03/23 12:58:24;;;;;;;13.35;9.68;;;16.00;60.20;;;;;;5096619;28;20081;-74
2022/03/23 13:00:54;;;;;;;11.88;9.48;;;16.10;60.40;;;;;;5078918;28;20051;-73